sensor_id;sensor_type;location;lat;lon;timestamp;pressure;altitude;pressure_sealevel;temperature;humidity
19526;BME280;9907;42.676;26.348;2023-02-28T00:00:00;99594.09;;;8.49;100.00
19526;BME280;9907;42.676;26.348;2023-02-28T00:02:26;99586.72;;;8.52;100.00
19526;BME280;9907;42.676;26.348;2023-02-28T00:04:51;99606.13;;;8.42;100.00
19526;BME280;9907;42.676;26.348;2023-02-28T00:07:27;99598.41;;;8.01;100.00
19526;BME280;9907;42.676;26.348;2023-02-28T00:09:53;99590.38;;;8.13;100.00
19526;BME280;9907;42.676;26.348;2023-02-28T00:12:18;99597.22;;;7.92;100.00
19526;BME280;9907;42.676;26.348;2023-02-28T00:14:44;99600.19;;;8.13;100.00
19526;BME280;9907;42.676;26.348;2023-02-28T00:17:09;99594.44;;;8.31;100.00
19526;BME280;9907;42.676;26.348;2023-02-28T00:19:35;99590.72;;;8.34;100.00
19526;BME280;9907;42.676;26.348;2023-02-28T00:22:00;99585.69;;;8.42;100.00
19526;BME280;9907;42.676;26.348;2023-02-28T00:24:26;99582.25;;;8.53;100.00
19526;BME280;9907;42.676;26.348;2023-02-28T00:26:54;99577.19;;;8.37;100.00
19526;BME280;9907;42.676;26.348;2023-02-28T00:29:22;99578.09;;;8.49;100.00
19526;BME280;9907;42.676;26.348;2023-02-28T00:31:48;99576.69;;;8.56;100.00
19526;BME280;9907;42.676;26.348;2023-02-28T00:34:13;99580.09;;;8.58;100.00
19526;BME280;9907;42.676;26.348;2023-02-28T00:36:39;99572.56;;;8.39;100.00
19526;BME280;9907;42.676;26.348;2023-02-28T00:39:09;99569.72;;;8.42;100.00
19526;BME280;9907;42.676;26.348;2023-02-28T00:41:34;99568.09;;;8.52;100.00
19526;BME280;9907;42.676;26.348;2023-02-28T00:44:00;99570.53;;;8.43;100.00
19526;BME280;9907;42.676;26.348;2023-02-28T00:46:25;99572.31;;;8.55;100.00
19526;BME280;9907;42.676;26.348;2023-02-28T00:48:51;99582.31;;;8.64;100.00
19526;BME280;9907;42.676;26.348;2023-02-28T00:51:16;99592.59;;;8.68;100.00
19526;BME280;9907;42.676;26.348;2023-02-28T00:53:42;99602.94;;;8.49;100.00
19526;BME280;9907;42.676;26.348;2023-02-28T00:56:07;99599.50;;;8.47;100.00
19526;BME280;9907;42.676;26.348;2023-02-28T00:58:32;99587.69;;;8.51;100.00
19526;BME280;9907;42.676;26.348;2023-02-28T01:00:58;99589.53;;;8.38;100.00
19526;BME280;9907;42.676;26.348;2023-02-28T01:03:23;99597.22;;;8.30;100.00
19526;BME280;9907;42.676;26.348;2023-02-28T01:05:49;99598.25;;;8.40;100.00
19526;BME280;9907;42.676;26.348;2023-02-28T01:08:15;99601.00;;;8.51;100.00
19526;BME280;9907;42.676;26.348;2023-02-28T01:10:41;99597.38;;;8.52;100.00
19526;BME280;9907;42.676;26.348;2023-02-28T01:13:06;99609.94;;;8.50;100.00
19526;BME280;9907;42.676;26.348;2023-02-28T01:15:32;99608.34;;;8.48;100.00
19526;BME280;9907;42.676;26.348;2023-02-28T01:17:58;99606.88;;;8.44;100.00
19526;BME280;9907;42.676;26.348;2023-02-28T01:20:24;99614.44;;;8.37;100.00
19526;BME280;9907;42.676;26.348;2023-02-28T01:22:49;99619.00;;;8.48;100.00
19526;BME280;9907;42.676;26.348;2023-02-28T01:25:15;99603.97;;;8.47;100.00
19526;BME280;9907;42.676;26.348;2023-02-28T01:27:40;99602.69;;;8.52;100.00
19526;BME280;9907;42.676;26.348;2023-02-28T01:30:10;99596.63;;;8.50;100.00
19526;BME280;9907;42.676;26.348;2023-02-28T01:32:35;99608.03;;;8.52;100.00
19526;BME280;9907;42.676;26.348;2023-02-28T01:35:01;99609.19;;;8.61;100.00
19526;BME280;9907;42.676;26.348;2023-02-28T01:37:27;99625.56;;;8.67;100.00
19526;BME280;9907;42.676;26.348;2023-02-28T01:39:53;99626.06;;;8.72;100.00
19526;BME280;9907;42.676;26.348;2023-02-28T01:42:18;99638.13;;;8.65;100.00
19526;BME280;9907;42.676;26.348;2023-02-28T01:47:40;99652.59;;;8.61;100.00
19526;BME280;9907;42.676;26.348;2023-02-28T01:50:14;99650.63;;;8.52;100.00
19526;BME280;9907;42.676;26.348;2023-02-28T01:52:42;99655.63;;;8.44;100.00
19526;BME280;9907;42.676;26.348;2023-02-28T01:55:10;99654.69;;;8.32;100.00
19526;BME280;9907;42.676;26.348;2023-02-28T01:57:41;99661.19;;;8.16;100.00
19526;BME280;9907;42.676;26.348;2023-02-28T02:00:10;99654.88;;;8.17;100.00
19526;BME280;9907;42.676;26.348;2023-02-28T02:02:39;99657.53;;;8.17;100.00
19526;BME280;9907;42.676;26.348;2023-02-28T02:05:10;99652.56;;;8.12;100.00
19526;BME280;9907;42.676;26.348;2023-02-28T02:07:39;99650.84;;;8.11;100.00
19526;BME280;9907;42.676;26.348;2023-02-28T02:10:20;99656.81;;;8.02;100.00
19526;BME280;9907;42.676;26.348;2023-02-28T02:13:00;99659.25;;;8.18;100.00
19526;BME280;9907;42.676;26.348;2023-02-28T02:15:40;99653.31;;;8.27;100.00
19526;BME280;9907;42.676;26.348;2023-02-28T02:18:26;99649.06;;;8.37;100.00
19526;BME280;9907;42.676;26.348;2023-02-28T02:23:49;99648.28;;;8.22;100.00
19526;BME280;9907;42.676;26.348;2023-02-28T02:26:43;99660.66;;;8.23;100.00
19526;BME280;9907;42.676;26.348;2023-02-28T02:31:54;99669.16;;;8.16;100.00
19526;BME280;9907;42.676;26.348;2023-02-28T02:39:44;99675.97;;;8.07;100.00
19526;BME280;9907;42.676;26.348;2023-02-28T02:42:23;99676.69;;;8.09;100.00
19526;BME280;9907;42.676;26.348;2023-02-28T02:45:25;99675.03;;;8.08;100.00
19526;BME280;9907;42.676;26.348;2023-02-28T02:47:56;99665.34;;;8.07;100.00
19526;BME280;9907;42.676;26.348;2023-02-28T02:50:34;99666.28;;;7.94;100.00
19526;BME280;9907;42.676;26.348;2023-02-28T02:53:03;99661.81;;;7.81;100.00
19526;BME280;9907;42.676;26.348;2023-02-28T02:55:34;99678.72;;;7.80;100.00
19526;BME280;9907;42.676;26.348;2023-02-28T02:58:05;99671.16;;;7.74;100.00
19526;BME280;9907;42.676;26.348;2023-02-28T03:00:37;99666.19;;;7.82;100.00
19526;BME280;9907;42.676;26.348;2023-02-28T03:03:05;99666.91;;;7.84;100.00
19526;BME280;9907;42.676;26.348;2023-02-28T03:05:39;99687.25;;;7.86;100.00
19526;BME280;9907;42.676;26.348;2023-02-28T03:08:07;99693.00;;;7.79;100.00
19526;BME280;9907;42.676;26.348;2023-02-28T03:10:41;99700.31;;;7.89;100.00
19526;BME280;9907;42.676;26.348;2023-02-28T03:27:03;99717.34;;;7.86;100.00
19526;BME280;9907;42.676;26.348;2023-02-28T03:29:35;99718.94;;;7.89;100.00
19526;BME280;9907;42.676;26.348;2023-02-28T03:32:08;99705.66;;;7.89;100.00
19526;BME280;9907;42.676;26.348;2023-02-28T03:34:46;99699.91;;;7.82;100.00
19526;BME280;9907;42.676;26.348;2023-02-28T03:37:19;99706.69;;;7.73;100.00
19526;BME280;9907;42.676;26.348;2023-02-28T03:39:52;99704.97;;;7.72;100.00
19526;BME280;9907;42.676;26.348;2023-02-28T03:42:21;99706.56;;;7.62;100.00
19526;BME280;9907;42.676;26.348;2023-02-28T03:44:58;99701.66;;;7.56;100.00
19526;BME280;9907;42.676;26.348;2023-02-28T03:47:37;99711.53;;;7.54;100.00
19526;BME280;9907;42.676;26.348;2023-02-28T03:52:35;99714.16;;;7.42;100.00
19526;BME280;9907;42.676;26.348;2023-02-28T03:55:07;99711.59;;;7.40;100.00
19526;BME280;9907;42.676;26.348;2023-02-28T03:57:40;99704.19;;;7.18;100.00
19526;BME280;9907;42.676;26.348;2023-02-28T04:00:15;99698.22;;;7.42;100.00
19526;BME280;9907;42.676;26.348;2023-02-28T04:02:43;99713.88;;;7.46;100.00
19526;BME280;9907;42.676;26.348;2023-02-28T04:05:08;99719.84;;;7.35;100.00
19526;BME280;9907;42.676;26.348;2023-02-28T04:07:35;99725.59;;;7.29;100.00
19526;BME280;9907;42.676;26.348;2023-02-28T04:10:00;99736.06;;;7.45;100.00
19526;BME280;9907;42.676;26.348;2023-02-28T04:12:26;99725.16;;;7.35;100.00
19526;BME280;9907;42.676;26.348;2023-02-28T04:14:51;99726.38;;;7.44;100.00
19526;BME280;9907;42.676;26.348;2023-02-28T04:17:17;99728.84;;;7.47;100.00
19526;BME280;9907;42.676;26.348;2023-02-28T04:19:43;99726.38;;;7.44;100.00
19526;BME280;9907;42.676;26.348;2023-02-28T04:22:09;99729.47;;;7.38;100.00
19526;BME280;9907;42.676;26.348;2023-02-28T04:24:35;99740.63;;;7.43;100.00
19526;BME280;9907;42.676;26.348;2023-02-28T04:27:01;99739.94;;;7.27;100.00
19526;BME280;9907;42.676;26.348;2023-02-28T04:29:32;99741.63;;;7.28;100.00
19526;BME280;9907;42.676;26.348;2023-02-28T04:31:59;99755.69;;;7.30;100.00
19526;BME280;9907;42.676;26.348;2023-02-28T04:34:26;99746.56;;;7.34;100.00
19526;BME280;9907;42.676;26.348;2023-02-28T04:36:52;99756.25;;;7.35;100.00
19526;BME280;9907;42.676;26.348;2023-02-28T04:39:21;99756.56;;;7.43;100.00
19526;BME280;9907;42.676;26.348;2023-02-28T04:41:47;99754.28;;;7.51;100.00
19526;BME280;9907;42.676;26.348;2023-02-28T04:44:13;99756.25;;;7.35;100.00
19526;BME280;9907;42.676;26.348;2023-02-28T04:46:38;99758.03;;;7.34;100.00
19526;BME280;9907;42.676;26.348;2023-02-28T04:49:04;99763.03;;;7.39;100.00
19526;BME280;9907;42.676;26.348;2023-02-28T04:51:29;99758.28;;;7.44;100.00
19526;BME280;9907;42.676;26.348;2023-02-28T04:53:55;99749.31;;;7.59;100.00
19526;BME280;9907;42.676;26.348;2023-02-28T04:56:21;99750.91;;;7.62;100.00
19526;BME280;9907;42.676;26.348;2023-02-28T04:58:47;99754.34;;;7.76;100.00
19526;BME280;9907;42.676;26.348;2023-02-28T05:01:25;99757.66;;;7.80;100.00
19526;BME280;9907;42.676;26.348;2023-02-28T05:03:53;99755.72;;;7.69;100.00
19526;BME280;9907;42.676;26.348;2023-02-28T05:06:20;99768.06;;;7.70;100.00
19526;BME280;9907;42.676;26.348;2023-02-28T05:08:46;99771.28;;;7.75;100.00
19526;BME280;9907;42.676;26.348;2023-02-28T05:11:18;99783.72;;;7.75;100.00
19526;BME280;9907;42.676;26.348;2023-02-28T05:13:44;99778.19;;;7.78;100.00
19526;BME280;9907;42.676;26.348;2023-02-28T05:16:10;99781.78;;;7.77;100.00
19526;BME280;9907;42.676;26.348;2023-02-28T05:18:35;99782.66;;;7.77;100.00
19526;BME280;9907;42.676;26.348;2023-02-28T05:21:01;99799.38;;;7.79;100.00
19526;BME280;9907;42.676;26.348;2023-02-28T05:23:27;99787.47;;;7.85;100.00
19526;BME280;9907;42.676;26.348;2023-02-28T05:25:53;99791.63;;;7.89;100.00
19526;BME280;9907;42.676;26.348;2023-02-28T05:28:19;99792.56;;;7.88;100.00
19526;BME280;9907;42.676;26.348;2023-02-28T05:30:45;99797.38;;;7.96;100.00
19526;BME280;9907;42.676;26.348;2023-02-28T05:33:11;99801.19;;;7.79;100.00
19526;BME280;9907;42.676;26.348;2023-02-28T05:35:39;99802.69;;;7.83;100.00
19526;BME280;9907;42.676;26.348;2023-02-28T05:38:04;99814.34;;;7.80;100.00
19526;BME280;9907;42.676;26.348;2023-02-28T05:40:30;99819.88;;;7.77;100.00
19526;BME280;9907;42.676;26.348;2023-02-28T05:42:55;99817.28;;;7.63;100.00
19526;BME280;9907;42.676;26.348;2023-02-28T05:45:21;99823.06;;;7.70;100.00
19526;BME280;9907;42.676;26.348;2023-02-28T05:47:46;99828.31;;;7.84;100.00
19526;BME280;9907;42.676;26.348;2023-02-28T05:50:12;99827.31;;;7.72;100.00
19526;BME280;9907;42.676;26.348;2023-02-28T05:52:37;99832.47;;;7.61;100.00
19526;BME280;9907;42.676;26.348;2023-02-28T05:55:03;99844.13;;;7.46;100.00
19526;BME280;9907;42.676;26.348;2023-02-28T05:57:29;99853.56;;;7.64;100.00
19526;BME280;9907;42.676;26.348;2023-02-28T05:59:55;99841.22;;;7.63;100.00
19526;BME280;9907;42.676;26.348;2023-02-28T06:02:20;99835.41;;;7.71;100.00
19526;BME280;9907;42.676;26.348;2023-02-28T06:04:48;99835.28;;;7.72;100.00
19526;BME280;9907;42.676;26.348;2023-02-28T06:07:14;99835.63;;;7.80;100.00
19526;BME280;9907;42.676;26.348;2023-02-28T06:09:40;99837.34;;;7.81;100.00
19526;BME280;9907;42.676;26.348;2023-02-28T06:12:06;99843.25;;;7.87;100.00
19526;BME280;9907;42.676;26.348;2023-02-28T06:14:34;99846.84;;;7.86;100.00
19526;BME280;9907;42.676;26.348;2023-02-28T06:17:00;99838.09;;;7.83;100.00
19526;BME280;9907;42.676;26.348;2023-02-28T06:19:26;99838.75;;;7.87;100.00
19526;BME280;9907;42.676;26.348;2023-02-28T06:21:52;99840.16;;;7.93;100.00
19526;BME280;9907;42.676;26.348;2023-02-28T06:24:19;99837.50;;;7.93;100.00
19526;BME280;9907;42.676;26.348;2023-02-28T06:26:45;99830.81;;;8.00;100.00
19526;BME280;9907;42.676;26.348;2023-02-28T06:29:10;99834.97;;;8.04;100.00
19526;BME280;9907;42.676;26.348;2023-02-28T06:31:36;99838.78;;;8.00;100.00
19526;BME280;9907;42.676;26.348;2023-02-28T06:34:04;99830.31;;;8.07;100.00
19526;BME280;9907;42.676;26.348;2023-02-28T06:36:29;99830.53;;;8.17;100.00
19526;BME280;9907;42.676;26.348;2023-02-28T06:38:55;99836.88;;;8.28;100.00
19526;BME280;9907;42.676;26.348;2023-02-28T06:41:26;99830.16;;;8.36;100.00
19526;BME280;9907;42.676;26.348;2023-02-28T06:43:52;99833.38;;;8.41;100.00
19526;BME280;9907;42.676;26.348;2023-02-28T06:46:18;99835.63;;;8.47;100.00
19526;BME280;9907;42.676;26.348;2023-02-28T06:48:44;99829.56;;;8.57;100.00
19526;BME280;9907;42.676;26.348;2023-02-28T06:51:18;99834.69;;;8.60;100.00
19526;BME280;9907;42.676;26.348;2023-02-28T06:53:48;99833.19;;;8.69;100.00
19526;BME280;9907;42.676;26.348;2023-02-28T06:56:15;99831.91;;;8.62;100.00
19526;BME280;9907;42.676;26.348;2023-02-28T06:58:41;99830.41;;;8.58;100.00
19526;BME280;9907;42.676;26.348;2023-02-28T07:01:08;99833.19;;;8.56;100.00
19526;BME280;9907;42.676;26.348;2023-02-28T07:03:35;99826.59;;;8.49;100.00
19526;BME280;9907;42.676;26.348;2023-02-28T07:06:01;99825.91;;;8.33;100.00
19526;BME280;9907;42.676;26.348;2023-02-28T07:08:28;99830.28;;;8.34;100.00
19526;BME280;9907;42.676;26.348;2023-02-28T07:10:54;99838.38;;;8.32;100.00
19526;BME280;9907;42.676;26.348;2023-02-28T07:13:20;99844.47;;;8.20;100.00
19526;BME280;9907;42.676;26.348;2023-02-28T07:16:01;99861.94;;;8.12;100.00
19526;BME280;9907;42.676;26.348;2023-02-28T07:18:28;99860.28;;;7.97;100.00
19526;BME280;9907;42.676;26.348;2023-02-28T07:20:55;99875.63;;;8.06;100.00
19526;BME280;9907;42.676;26.348;2023-02-28T07:23:21;99864.84;;;7.95;100.00
19526;BME280;9907;42.676;26.348;2023-02-28T07:25:47;99877.09;;;7.97;100.00
19526;BME280;9907;42.676;26.348;2023-02-28T07:28:13;99869.78;;;8.01;100.00
19526;BME280;9907;42.676;26.348;2023-02-28T07:30:40;99873.88;;;7.92;100.00
19526;BME280;9907;42.676;26.348;2023-02-28T07:33:06;99863.91;;;7.96;100.00
19526;BME280;9907;42.676;26.348;2023-02-28T07:35:32;99868.47;;;7.94;100.00
19526;BME280;9907;42.676;26.348;2023-02-28T07:37:58;99864.09;;;7.93;100.00
19526;BME280;9907;42.676;26.348;2023-02-28T07:40:24;99863.25;;;7.92;100.00
19526;BME280;9907;42.676;26.348;2023-02-28T07:42:50;99854.63;;;7.89;100.00
19526;BME280;9907;42.676;26.348;2023-02-28T07:45:15;99862.38;;;7.92;100.00
19526;BME280;9907;42.676;26.348;2023-02-28T07:47:42;99871.78;;;7.97;100.00
19526;BME280;9907;42.676;26.348;2023-02-28T07:50:10;99865.16;;;7.90;100.00
19526;BME280;9907;42.676;26.348;2023-02-28T07:52:37;99866.75;;;7.93;100.00
19526;BME280;9907;42.676;26.348;2023-02-28T07:55:04;99876.69;;;8.03;100.00
19526;BME280;9907;42.676;26.348;2023-02-28T07:57:30;99883.44;;;8.09;100.00
19526;BME280;9907;42.676;26.348;2023-02-28T07:59:59;99885.75;;;8.01;100.00
19526;BME280;9907;42.676;26.348;2023-02-28T08:02:25;99885.53;;;8.04;100.00
19526;BME280;9907;42.676;26.348;2023-02-28T08:04:51;99880.72;;;7.96;100.00
19526;BME280;9907;42.676;26.348;2023-02-28T08:07:17;99873.53;;;8.11;100.00
19526;BME280;9907;42.676;26.348;2023-02-28T08:09:44;99878.75;;;8.12;100.00
19526;BME280;9907;42.676;26.348;2023-02-28T08:12:10;99888.84;;;8.07;100.00
19526;BME280;9907;42.676;26.348;2023-02-28T08:14:36;99879.97;;;7.94;100.00
19526;BME280;9907;42.676;26.348;2023-02-28T08:17:03;99880.13;;;8.05;100.00
19526;BME280;9907;42.676;26.348;2023-02-28T08:19:29;99875.44;;;8.09;100.00
19526;BME280;9907;42.676;26.348;2023-02-28T08:21:55;99869.50;;;8.18;100.00
19526;BME280;9907;42.676;26.348;2023-02-28T08:24:21;99876.75;;;8.16;100.00
19526;BME280;9907;42.676;26.348;2023-02-28T08:26:46;99876.97;;;8.13;100.00
19526;BME280;9907;42.676;26.348;2023-02-28T08:29:12;99872.50;;;8.26;100.00
19526;BME280;9907;42.676;26.348;2023-02-28T08:31:37;99875.38;;;8.23;100.00
19526;BME280;9907;42.676;26.348;2023-02-28T08:34:07;99876.19;;;8.38;100.00
19526;BME280;9907;42.676;26.348;2023-02-28T08:36:34;99866.72;;;8.34;100.00
19526;BME280;9907;42.676;26.348;2023-02-28T08:39:00;99876.41;;;8.35;100.00
19526;BME280;9907;42.676;26.348;2023-02-28T08:41:26;99874.44;;;8.24;100.00
19526;BME280;9907;42.676;26.348;2023-02-28T08:43:51;99871.78;;;8.24;100.00
19526;BME280;9907;42.676;26.348;2023-02-28T08:46:17;99867.91;;;8.28;100.00
19526;BME280;9907;42.676;26.348;2023-02-28T08:48:43;99873.84;;;8.33;100.00
19526;BME280;9907;42.676;26.348;2023-02-28T08:51:14;99877.44;;;8.32;100.00
19526;BME280;9907;42.676;26.348;2023-02-28T08:53:57;99872.59;;;8.39;100.00
19526;BME280;9907;42.676;26.348;2023-02-28T08:56:23;99880.00;;;8.34;100.00
19526;BME280;9907;42.676;26.348;2023-02-28T08:58:49;99882.59;;;8.48;100.00
19526;BME280;9907;42.676;26.348;2023-02-28T09:01:20;99897.63;;;8.49;100.00
19526;BME280;9907;42.676;26.348;2023-02-28T09:03:48;99894.41;;;8.31;100.00
19526;BME280;9907;42.676;26.348;2023-02-28T09:06:15;99892.59;;;8.17;100.00
19526;BME280;9907;42.676;26.348;2023-02-28T09:08:44;99895.81;;;8.22;100.00
19526;BME280;9907;42.676;26.348;2023-02-28T09:11:12;99904.50;;;8.12;100.00
19526;BME280;9907;42.676;26.348;2023-02-28T09:13:39;99898.03;;;8.16;100.00
19526;BME280;9907;42.676;26.348;2023-02-28T09:16:06;99903.72;;;8.24;100.00
19526;BME280;9907;42.676;26.348;2023-02-28T09:18:36;99897.63;;;8.22;100.00
19526;BME280;9907;42.676;26.348;2023-02-28T09:21:04;99892.69;;;8.30;100.00
19526;BME280;9907;42.676;26.348;2023-02-28T09:23:30;99888.88;;;8.34;100.00
19526;BME280;9907;42.676;26.348;2023-02-28T09:25:55;99886.84;;;8.38;100.00
19526;BME280;9907;42.676;26.348;2023-02-28T09:28:21;99888.44;;;8.40;100.00
19526;BME280;9907;42.676;26.348;2023-02-28T09:30:52;99886.34;;;8.58;100.00
19526;BME280;9907;42.676;26.348;2023-02-28T09:33:18;99886.03;;;8.62;100.00
19526;BME280;9907;42.676;26.348;2023-02-28T09:35:46;99886.28;;;8.72;100.00
19526;BME280;9907;42.676;26.348;2023-02-28T09:38:12;99878.06;;;8.75;100.00
19526;BME280;9907;42.676;26.348;2023-02-28T09:40:49;99877.94;;;8.76;100.00
19526;BME280;9907;42.676;26.348;2023-02-28T09:43:16;99870.19;;;8.86;100.00
19526;BME280;9907;42.676;26.348;2023-02-28T09:45:52;99870.91;;;9.01;100.00
19526;BME280;9907;42.676;26.348;2023-02-28T09:48:28;99866.41;;;9.14;100.00
19526;BME280;9907;42.676;26.348;2023-02-28T09:53:35;99864.19;;;9.08;100.00
19526;BME280;9907;42.676;26.348;2023-02-28T09:56:22;99859.59;;;9.10;100.00
19526;BME280;9907;42.676;26.348;2023-02-28T10:04:03;99869.09;;;9.14;100.00
19526;BME280;9907;42.676;26.348;2023-02-28T10:06:38;99871.53;;;9.17;100.00
19526;BME280;9907;42.676;26.348;2023-02-28T10:09:21;99873.38;;;9.04;100.00
19526;BME280;9907;42.676;26.348;2023-02-28T10:11:51;99877.09;;;9.01;100.00
19526;BME280;9907;42.676;26.348;2023-02-28T10:14:21;99868.38;;;8.87;100.00
19526;BME280;9907;42.676;26.348;2023-02-28T10:16:55;99882.28;;;8.65;100.00
19526;BME280;9907;42.676;26.348;2023-02-28T10:19:27;99863.66;;;8.65;100.00
19526;BME280;9907;42.676;26.348;2023-02-28T10:25:18;99851.63;;;8.59;100.00
19526;BME280;9907;42.676;26.348;2023-02-28T10:27:43;99859.31;;;8.64;100.00
19526;BME280;9907;42.676;26.348;2023-02-28T10:30:13;99845.34;;;8.60;100.00
19526;BME280;9907;42.676;26.348;2023-02-28T10:32:40;99834.25;;;8.66;100.00
19526;BME280;9907;42.676;26.348;2023-02-28T10:35:17;99847.25;;;8.71;100.00
19526;BME280;9907;42.676;26.348;2023-02-28T10:37:46;99843.63;;;8.59;100.00
19526;BME280;9907;42.676;26.348;2023-02-28T10:42:58;99839.81;;;8.63;100.00
19526;BME280;9907;42.676;26.348;2023-02-28T10:45:25;99825.53;;;8.64;100.00
19526;BME280;9907;42.676;26.348;2023-02-28T10:47:57;99818.06;;;8.69;100.00
19526;BME280;9907;42.676;26.348;2023-02-28T10:53:28;99821.13;;;8.51;100.00
19526;BME280;9907;42.676;26.348;2023-02-28T10:56:01;99813.03;;;8.40;100.00
19526;BME280;9907;42.676;26.348;2023-02-28T10:58:58;99801.63;;;8.50;100.00
19526;BME280;9907;42.676;26.348;2023-02-28T11:03:52;99800.06;;;8.60;100.00
19526;BME280;9907;42.676;26.348;2023-02-28T11:06:29;99794.84;;;8.59;100.00
19526;BME280;9907;42.676;26.348;2023-02-28T11:08:58;99789.94;;;8.65;100.00
19526;BME280;9907;42.676;26.348;2023-02-28T11:11:26;99787.81;;;8.70;100.00
19526;BME280;9907;42.676;26.348;2023-02-28T11:13:56;99797.81;;;8.67;100.00
19526;BME280;9907;42.676;26.348;2023-02-28T11:16:32;99793.03;;;8.59;100.00
19526;BME280;9907;42.676;26.348;2023-02-28T11:18:58;99788.22;;;8.77;100.00
19526;BME280;9907;42.676;26.348;2023-02-28T11:21:28;99786.72;;;8.73;100.00
19526;BME280;9907;42.676;26.348;2023-02-28T11:26:52;99793.13;;;8.83;100.00
19526;BME280;9907;42.676;26.348;2023-02-28T11:29:24;99781.63;;;8.83;100.00
19526;BME280;9907;42.676;26.348;2023-02-28T11:32:21;99779.06;;;8.94;100.00
19526;BME280;9907;42.676;26.348;2023-02-28T11:35:03;99770.69;;;8.98;100.00
19526;BME280;9907;42.676;26.348;2023-02-28T11:37:31;99782.25;;;8.73;100.00
19526;BME280;9907;42.676;26.348;2023-02-28T11:39:57;99776.28;;;8.83;100.00
19526;BME280;9907;42.676;26.348;2023-02-28T11:48:58;99790.16;;;8.50;100.00
19526;BME280;9907;42.676;26.348;2023-02-28T11:54:01;99801.09;;;8.32;100.00
19526;BME280;9907;42.676;26.348;2023-02-28T11:56:43;99790.31;;;8.21;100.00
19526;BME280;9907;42.676;26.348;2023-02-28T12:02:32;99792.88;;;8.23;100.00
19526;BME280;9907;42.676;26.348;2023-02-28T12:10:25;99794.94;;;7.93;100.00
19526;BME280;9907;42.676;26.348;2023-02-28T12:13:16;99794.94;;;7.93;100.00
19526;BME280;9907;42.676;26.348;2023-02-28T12:21:01;99809.31;;;7.90;100.00
19526;BME280;9907;42.676;26.348;2023-02-28T12:23:43;99800.84;;;7.83;100.00
19526;BME280;9907;42.676;26.348;2023-02-28T12:28:59;99809.16;;;7.79;100.00
19526;BME280;9907;42.676;26.348;2023-02-28T12:31:31;99782.78;;;7.89;100.00
19526;BME280;9907;42.676;26.348;2023-02-28T12:34:04;99788.28;;;7.73;100.00
19526;BME280;9907;42.676;26.348;2023-02-28T12:36:32;99779.97;;;7.65;100.00
19526;BME280;9907;42.676;26.348;2023-02-28T12:39:08;99786.91;;;7.80;100.00
19526;BME280;9907;42.676;26.348;2023-02-28T12:41:44;99767.91;;;7.86;100.00
19526;BME280;9907;42.676;26.348;2023-02-28T12:47:00;99774.06;;;7.87;100.00
19526;BME280;9907;42.676;26.348;2023-02-28T12:49:37;99768.53;;;7.90;100.00
19526;BME280;9907;42.676;26.348;2023-02-28T12:52:05;99777.50;;;8.01;100.00
19526;BME280;9907;42.676;26.348;2023-02-28T12:54:52;99768.38;;;8.05;100.00
19526;BME280;9907;42.676;26.348;2023-02-28T12:57:31;99768.03;;;7.97;100.00
19526;BME280;9907;42.676;26.348;2023-02-28T13:00:13;99788.16;;;8.01;100.00
19526;BME280;9907;42.676;26.348;2023-02-28T13:10:54;99768.97;;;7.57;100.00
19526;BME280;9907;42.676;26.348;2023-02-28T13:13:24;99762.31;;;7.76;100.00
19526;BME280;9907;42.676;26.348;2023-02-28T13:15:58;99762.94;;;7.67;100.00
19526;BME280;9907;42.676;26.348;2023-02-28T13:18:46;99758.56;;;7.66;100.00
19526;BME280;9907;42.676;26.348;2023-02-28T13:21:27;99769.06;;;7.55;100.00
19526;BME280;9907;42.676;26.348;2023-02-28T13:24:00;99773.09;;;7.48;100.00
19526;BME280;9907;42.676;26.348;2023-02-28T13:42:36;99747.72;;;7.57;100.00
19526;BME280;9907;42.676;26.348;2023-02-28T13:47:48;99740.75;;;7.54;100.00
19526;BME280;9907;42.676;26.348;2023-02-28T13:58:42;99756.94;;;7.51;100.00
19526;BME280;9907;42.676;26.348;2023-02-28T14:11:41;99753.59;;;7.21;100.00
19526;BME280;9907;42.676;26.348;2023-02-28T14:14:09;99747.28;;;7.36;100.00
19526;BME280;9907;42.676;26.348;2023-02-28T14:16:40;99748.06;;;7.38;100.00
19526;BME280;9907;42.676;26.348;2023-02-28T14:19:14;99740.13;;;7.51;100.00
19526;BME280;9907;42.676;26.348;2023-02-28T14:29:59;99752.41;;;7.39;100.00
19526;BME280;9907;42.676;26.348;2023-02-28T14:38:21;99759.94;;;7.32;100.00
19526;BME280;9907;42.676;26.348;2023-02-28T14:40:49;99769.53;;;7.35;100.00
19526;BME280;9907;42.676;26.348;2023-02-28T14:43:22;99768.75;;;7.33;100.00
19526;BME280;9907;42.676;26.348;2023-02-28T14:45:59;99776.00;;;7.31;100.00
19526;BME280;9907;42.676;26.348;2023-02-28T14:48:25;99774.72;;;7.37;100.00
19526;BME280;9907;42.676;26.348;2023-02-28T14:50:59;99782.81;;;7.35;100.00
19526;BME280;9907;42.676;26.348;2023-02-28T14:53:30;99779.38;;;7.33;100.00
19526;BME280;9907;42.676;26.348;2023-02-28T14:56:00;99781.47;;;7.28;100.00
19526;BME280;9907;42.676;26.348;2023-02-28T14:58:28;99783.00;;;7.32;100.00
19526;BME280;9907;42.676;26.348;2023-02-28T15:00:57;99789.13;;;7.20;100.00
19526;BME280;9907;42.676;26.348;2023-02-28T15:03:36;99797.47;;;7.14;100.00
19526;BME280;9907;42.676;26.348;2023-02-28T15:06:05;99787.59;;;7.16;100.00
19526;BME280;9907;42.676;26.348;2023-02-28T15:08:32;99795.00;;;7.11;100.00
19526;BME280;9907;42.676;26.348;2023-02-28T15:11:04;99803.47;;;7.03;100.00
19526;BME280;9907;42.676;26.348;2023-02-28T15:13:47;99809.44;;;7.07;100.00
19526;BME280;9907;42.676;26.348;2023-02-28T15:16:17;99816.47;;;7.08;100.00
19526;BME280;9907;42.676;26.348;2023-02-28T15:18:51;99807.91;;;7.03;100.00
19526;BME280;9907;42.676;26.348;2023-02-28T15:24:00;99813.22;;;7.03;100.00
19526;BME280;9907;42.676;26.348;2023-02-28T15:26:34;99817.69;;;7.02;100.00
19526;BME280;9907;42.676;26.348;2023-02-28T15:29:12;99815.22;;;6.99;100.00
19526;BME280;9907;42.676;26.348;2023-02-28T15:31:44;99824.06;;;7.00;100.00
19526;BME280;9907;42.676;26.348;2023-02-28T15:34:25;99821.69;;;6.95;100.00